sensor_id;sensor_type;location;lat;lon;timestamp;P1;durP1;ratioP1;P2;durP2;ratioP2
21420;SDS011;10871;50.144;8.428;2024-02-21T00:01:17;14.27;;;5.05;;
21420;SDS011;10871;50.144;8.428;2024-02-21T00:03:43;13.95;;;5.10;;
21420;SDS011;10871;50.144;8.428;2024-02-21T00:06:10;13.73;;;5.40;;
21420;SDS011;10871;50.144;8.428;2024-02-21T00:08:37;13.52;;;5.00;;
21420;SDS011;10871;50.144;8.428;2024-02-21T00:11:04;19.33;;;5.30;;
21420;SDS011;10871;50.144;8.428;2024-02-21T00:13:30;15.75;;;5.53;;
21420;SDS011;10871;50.144;8.428;2024-02-21T00:15:57;16.45;;;6.00;;
21420;SDS011;10871;50.144;8.428;2024-02-21T00:18:23;16.13;;;5.88;;
21420;SDS011;10871;50.144;8.428;2024-02-21T00:20:55;20.27;;;6.65;;
21420;SDS011;10871;50.144;8.428;2024-02-21T00:23:22;12.48;;;5.80;;
21420;SDS011;10871;50.144;8.428;2024-02-21T00:25:49;23.42;;;5.97;;
21420;SDS011;10871;50.144;8.428;2024-02-21T00:28:16;15.95;;;5.72;;
21420;SDS011;10871;50.144;8.428;2024-02-21T00:30:43;17.38;;;5.55;;
21420;SDS011;10871;50.144;8.428;2024-02-21T00:33:10;17.80;;;5.60;;
21420;SDS011;10871;50.144;8.428;2024-02-21T00:35:37;17.30;;;6.93;;
21420;SDS011;10871;50.144;8.428;2024-02-21T00:38:03;19.23;;;6.50;;
21420;SDS011;10871;50.144;8.428;2024-02-21T00:40:30;19.55;;;6.50;;
21420;SDS011;10871;50.144;8.428;2024-02-21T00:42:57;18.48;;;6.65;;
21420;SDS011;10871;50.144;8.428;2024-02-21T00:45:23;23.00;;;6.47;;
21420;SDS011;10871;50.144;8.428;2024-02-21T00:47:50;18.55;;;6.15;;
21420;SDS011;10871;50.144;8.428;2024-02-21T00:50:16;17.05;;;5.93;;
21420;SDS011;10871;50.144;8.428;2024-02-21T00:52:43;17.65;;;6.00;;
21420;SDS011;10871;50.144;8.428;2024-02-21T00:55:10;16.67;;;5.65;;
21420;SDS011;10871;50.144;8.428;2024-02-21T00:57:37;21.38;;;5.75;;
21420;SDS011;10871;50.144;8.428;2024-02-21T01:00:04;20.42;;;6.43;;
21420;SDS011;10871;50.144;8.428;2024-02-21T01:02:30;19.50;;;6.18;;
21420;SDS011;10871;50.144;8.428;2024-02-21T01:05:00;16.17;;;6.57;;
21420;SDS011;10871;50.144;8.428;2024-02-21T01:07:26;20.80;;;7.53;;
21420;SDS011;10871;50.144;8.428;2024-02-21T01:09:53;13.63;;;6.43;;
21420;SDS011;10871;50.144;8.428;2024-02-21T01:12:19;20.27;;;6.57;;
21420;SDS011;10871;50.144;8.428;2024-02-21T01:14:46;17.23;;;6.72;;
21420;SDS011;10871;50.144;8.428;2024-02-21T01:17:13;21.23;;;6.97;;
21420;SDS011;10871;50.144;8.428;2024-02-21T01:19:39;14.05;;;6.25;;
21420;SDS011;10871;50.144;8.428;2024-02-21T01:22:06;14.70;;;6.05;;
21420;SDS011;10871;50.144;8.428;2024-02-21T01:24:33;19.05;;;6.43;;
21420;SDS011;10871;50.144;8.428;2024-02-21T01:26:59;18.25;;;6.53;;
21420;SDS011;10871;50.144;8.428;2024-02-21T01:29:26;18.50;;;6.43;;
21420;SDS011;10871;50.144;8.428;2024-02-21T01:31:53;17.52;;;6.60;;
21420;SDS011;10871;50.144;8.428;2024-02-21T01:34:20;20.17;;;6.68;;
21420;SDS011;10871;50.144;8.428;2024-02-21T01:36:46;17.33;;;5.65;;
21420;SDS011;10871;50.144;8.428;2024-02-21T01:39:13;17.67;;;5.97;;
21420;SDS011;10871;50.144;8.428;2024-02-21T01:41:39;15.82;;;6.60;;
21420;SDS011;10871;50.144;8.428;2024-02-21T01:44:05;23.83;;;7.10;;
21420;SDS011;10871;50.144;8.428;2024-02-21T01:46:32;18.58;;;6.30;;
21420;SDS011;10871;50.144;8.428;2024-02-21T01:48:59;14.75;;;6.18;;
21420;SDS011;10871;50.144;8.428;2024-02-21T01:51:26;19.45;;;7.10;;
21420;SDS011;10871;50.144;8.428;2024-02-21T01:53:53;17.77;;;6.40;;
21420;SDS011;10871;50.144;8.428;2024-02-21T01:56:21;15.07;;;6.40;;
21420;SDS011;10871;50.144;8.428;2024-02-21T01:58:48;16.80;;;6.10;;
21420;SDS011;10871;50.144;8.428;2024-02-21T02:01:15;20.65;;;7.15;;
21420;SDS011;10871;50.144;8.428;2024-02-21T02:03:47;17.30;;;6.53;;
21420;SDS011;10871;50.144;8.428;2024-02-21T02:06:14;13.10;;;6.15;;
21420;SDS011;10871;50.144;8.428;2024-02-21T02:08:40;20.00;;;5.93;;
21420;SDS011;10871;50.144;8.428;2024-02-21T02:11:07;17.02;;;6.47;;
21420;SDS011;10871;50.144;8.428;2024-02-21T02:13:34;15.75;;;6.15;;
21420;SDS011;10871;50.144;8.428;2024-02-21T02:16:01;16.48;;;6.13;;
21420;SDS011;10871;50.144;8.428;2024-02-21T02:18:27;15.40;;;5.95;;
21420;SDS011;10871;50.144;8.428;2024-02-21T02:20:54;15.15;;;6.30;;
21420;SDS011;10871;50.144;8.428;2024-02-21T02:25:47;18.08;;;6.05;;
21420;SDS011;10871;50.144;8.428;2024-02-21T02:28:18;15.60;;;5.85;;
21420;SDS011;10871;50.144;8.428;2024-02-21T02:30:45;20.15;;;6.60;;
21420;SDS011;10871;50.144;8.428;2024-02-21T02:33:12;14.52;;;5.90;;
21420;SDS011;10871;50.144;8.428;2024-02-21T02:35:38;23.60;;;8.00;;
21420;SDS011;10871;50.144;8.428;2024-02-21T02:38:05;15.15;;;5.93;;
21420;SDS011;10871;50.144;8.428;2024-02-21T02:40:35;17.30;;;6.28;;
21420;SDS011;10871;50.144;8.428;2024-02-21T02:43:01;16.08;;;6.18;;
21420;SDS011;10871;50.144;8.428;2024-02-21T02:45:29;11.85;;;6.10;;
21420;SDS011;10871;50.144;8.428;2024-02-21T02:47:56;21.73;;;7.82;;
21420;SDS011;10871;50.144;8.428;2024-02-21T02:50:24;14.02;;;5.82;;
21420;SDS011;10871;50.144;8.428;2024-02-21T02:52:51;19.75;;;6.40;;
21420;SDS011;10871;50.144;8.428;2024-02-21T02:55:17;15.73;;;6.45;;
21420;SDS011;10871;50.144;8.428;2024-02-21T02:57:44;15.73;;;5.70;;
21420;SDS011;10871;50.144;8.428;2024-02-21T03:00:11;16.98;;;6.35;;
21420;SDS011;10871;50.144;8.428;2024-02-21T03:02:39;14.77;;;5.85;;
21420;SDS011;10871;50.144;8.428;2024-02-21T03:05:19;15.57;;;6.65;;
21420;SDS011;10871;50.144;8.428;2024-02-21T03:07:47;18.40;;;6.60;;
21420;SDS011;10871;50.144;8.428;2024-02-21T03:10:14;19.13;;;6.20;;
21420;SDS011;10871;50.144;8.428;2024-02-21T03:12:43;12.00;;;6.05;;
21420;SDS011;10871;50.144;8.428;2024-02-21T03:15:10;19.02;;;6.68;;
21420;SDS011;10871;50.144;8.428;2024-02-21T03:17:37;13.70;;;6.03;;
21420;SDS011;10871;50.144;8.428;2024-02-21T03:20:03;15.93;;;5.75;;
21420;SDS011;10871;50.144;8.428;2024-02-21T03:22:38;16.10;;;5.57;;
21420;SDS011;10871;50.144;8.428;2024-02-21T03:25:05;16.70;;;6.18;;
21420;SDS011;10871;50.144;8.428;2024-02-21T03:27:33;19.15;;;6.50;;
21420;SDS011;10871;50.144;8.428;2024-02-21T03:29:59;15.10;;;5.45;;
21420;SDS011;10871;50.144;8.428;2024-02-21T03:32:26;21.80;;;8.20;;
21420;SDS011;10871;50.144;8.428;2024-02-21T03:34:53;18.33;;;6.13;;
21420;SDS011;10871;50.144;8.428;2024-02-21T03:37:20;20.25;;;6.18;;
21420;SDS011;10871;50.144;8.428;2024-02-21T03:39:47;15.20;;;6.22;;
21420;SDS011;10871;50.144;8.428;2024-02-21T03:42:13;13.50;;;6.28;;
21420;SDS011;10871;50.144;8.428;2024-02-21T03:44:40;19.02;;;6.80;;
21420;SDS011;10871;50.144;8.428;2024-02-21T03:47:06;14.35;;;6.55;;
21420;SDS011;10871;50.144;8.428;2024-02-21T03:49:36;16.45;;;6.75;;
21420;SDS011;10871;50.144;8.428;2024-02-21T03:52:05;18.48;;;7.53;;
21420;SDS011;10871;50.144;8.428;2024-02-21T03:54:31;17.70;;;6.85;;
21420;SDS011;10871;50.144;8.428;2024-02-21T03:56:58;15.07;;;6.45;;
21420;SDS011;10871;50.144;8.428;2024-02-21T03:59:24;19.13;;;6.43;;
21420;SDS011;10871;50.144;8.428;2024-02-21T04:01:51;20.33;;;6.70;;
21420;SDS011;10871;50.144;8.428;2024-02-21T04:04:19;17.48;;;6.53;;
21420;SDS011;10871;50.144;8.428;2024-02-21T04:06:46;14.75;;;6.35;;
21420;SDS011;10871;50.144;8.428;2024-02-21T04:09:12;19.23;;;6.57;;
21420;SDS011;10871;50.144;8.428;2024-02-21T04:11:39;20.92;;;6.78;;
21420;SDS011;10871;50.144;8.428;2024-02-21T04:14:05;14.30;;;6.35;;
21420;SDS011;10871;50.144;8.428;2024-02-21T04:16:32;15.07;;;6.70;;
21420;SDS011;10871;50.144;8.428;2024-02-21T04:18:58;15.30;;;6.88;;
21420;SDS011;10871;50.144;8.428;2024-02-21T04:21:25;15.77;;;6.20;;
21420;SDS011;10871;50.144;8.428;2024-02-21T04:23:52;18.40;;;6.30;;
21420;SDS011;10871;50.144;8.428;2024-02-21T04:26:18;17.92;;;6.35;;
21420;SDS011;10871;50.144;8.428;2024-02-21T04:28:45;19.95;;;7.18;;
21420;SDS011;10871;50.144;8.428;2024-02-21T04:31:11;14.85;;;6.40;;
21420;SDS011;10871;50.144;8.428;2024-02-21T04:33:38;16.35;;;6.22;;
21420;SDS011;10871;50.144;8.428;2024-02-21T04:36:04;17.67;;;5.60;;
21420;SDS011;10871;50.144;8.428;2024-02-21T04:38:31;14.95;;;5.70;;
21420;SDS011;10871;50.144;8.428;2024-02-21T04:40:57;18.08;;;6.20;;
21420;SDS011;10871;50.144;8.428;2024-02-21T04:43:25;15.68;;;6.40;;
21420;SDS011;10871;50.144;8.428;2024-02-21T04:45:51;18.88;;;6.05;;
21420;SDS011;10871;50.144;8.428;2024-02-21T04:48:19;14.60;;;6.22;;
21420;SDS011;10871;50.144;8.428;2024-02-21T04:50:46;17.23;;;6.90;;
21420;SDS011;10871;50.144;8.428;2024-02-21T04:53:13;20.88;;;6.25;;
21420;SDS011;10871;50.144;8.428;2024-02-21T04:55:40;16.48;;;6.32;;
21420;SDS011;10871;50.144;8.428;2024-02-21T04:58:07;16.38;;;7.00;;
21420;SDS011;10871;50.144;8.428;2024-02-21T05:00:33;18.23;;;6.60;;
21420;SDS011;10871;50.144;8.428;2024-02-21T05:03:00;17.10;;;7.47;;
21420;SDS011;10871;50.144;8.428;2024-02-21T05:05:26;17.75;;;6.97;;
21420;SDS011;10871;50.144;8.428;2024-02-21T05:07:53;16.20;;;7.07;;
21420;SDS011;10871;50.144;8.428;2024-02-21T05:10:20;19.50;;;7.10;;
21420;SDS011;10871;50.144;8.428;2024-02-21T05:12:46;28.13;;;7.80;;
21420;SDS011;10871;50.144;8.428;2024-02-21T05:15:13;19.90;;;6.85;;
21420;SDS011;10871;50.144;8.428;2024-02-21T05:17:39;17.40;;;6.65;;
21420;SDS011;10871;50.144;8.428;2024-02-21T05:20:08;16.52;;;6.82;;
21420;SDS011;10871;50.144;8.428;2024-02-21T05:22:35;14.18;;;6.28;;
21420;SDS011;10871;50.144;8.428;2024-02-21T05:25:01;16.02;;;6.45;;
21420;SDS011;10871;50.144;8.428;2024-02-21T05:27:28;19.50;;;7.25;;
21420;SDS011;10871;50.144;8.428;2024-02-21T05:29:54;21.67;;;7.45;;
21420;SDS011;10871;50.144;8.428;2024-02-21T05:32:21;18.63;;;7.00;;
21420;SDS011;10871;50.144;8.428;2024-02-21T05:34:51;19.77;;;6.93;;
21420;SDS011;10871;50.144;8.428;2024-02-21T05:37:17;17.83;;;7.68;;
21420;SDS011;10871;50.144;8.428;2024-02-21T05:39:44;19.23;;;7.22;;
21420;SDS011;10871;50.144;8.428;2024-02-21T05:42:10;16.23;;;7.95;;
21420;SDS011;10871;50.144;8.428;2024-02-21T05:44:37;25.33;;;7.78;;
21420;SDS011;10871;50.144;8.428;2024-02-21T05:47:04;18.50;;;6.57;;
21420;SDS011;10871;50.144;8.428;2024-02-21T05:49:30;18.08;;;7.20;;
21420;SDS011;10871;50.144;8.428;2024-02-21T05:51:57;18.33;;;6.68;;
21420;SDS011;10871;50.144;8.428;2024-02-21T05:54:23;20.10;;;7.53;;
21420;SDS011;10871;50.144;8.428;2024-02-21T05:56:50;20.27;;;6.93;;
21420;SDS011;10871;50.144;8.428;2024-02-21T05:59:16;12.35;;;7.03;;
21420;SDS011;10871;50.144;8.428;2024-02-21T06:01:43;18.98;;;7.10;;
21420;SDS011;10871;50.144;8.428;2024-02-21T06:04:10;17.98;;;8.15;;
21420;SDS011;10871;50.144;8.428;2024-02-21T06:06:37;22.17;;;7.57;;
21420;SDS011;10871;50.144;8.428;2024-02-21T06:09:04;21.27;;;7.63;;
21420;SDS011;10871;50.144;8.428;2024-02-21T06:11:30;15.20;;;6.13;;
21420;SDS011;10871;50.144;8.428;2024-02-21T06:13:57;18.00;;;7.50;;
21420;SDS011;10871;50.144;8.428;2024-02-21T06:16:23;21.35;;;7.60;;
21420;SDS011;10871;50.144;8.428;2024-02-21T06:18:50;18.67;;;7.88;;
21420;SDS011;10871;50.144;8.428;2024-02-21T06:21:16;17.17;;;7.50;;
21420;SDS011;10871;50.144;8.428;2024-02-21T06:23:43;22.75;;;7.63;;
21420;SDS011;10871;50.144;8.428;2024-02-21T06:26:10;21.55;;;8.15;;
21420;SDS011;10871;50.144;8.428;2024-02-21T06:28:36;18.13;;;7.82;;
21420;SDS011;10871;50.144;8.428;2024-02-21T06:31:03;13.88;;;6.82;;
21420;SDS011;10871;50.144;8.428;2024-02-21T06:33:29;21.08;;;7.68;;
21420;SDS011;10871;50.144;8.428;2024-02-21T06:35:56;20.98;;;8.35;;
21420;SDS011;10871;50.144;8.428;2024-02-21T06:38:23;18.80;;;9.00;;
21420;SDS011;10871;50.144;8.428;2024-02-21T06:40:50;17.00;;;7.95;;
21420;SDS011;10871;50.144;8.428;2024-02-21T06:43:19;20.73;;;8.75;;
21420;SDS011;10871;50.144;8.428;2024-02-21T06:45:46;17.67;;;7.78;;
21420;SDS011;10871;50.144;8.428;2024-02-21T06:48:17;18.70;;;8.48;;
21420;SDS011;10871;50.144;8.428;2024-02-21T06:50:44;18.98;;;8.35;;
21420;SDS011;10871;50.144;8.428;2024-02-21T06:53:11;19.17;;;8.85;;
21420;SDS011;10871;50.144;8.428;2024-02-21T06:55:38;16.55;;;7.20;;
21420;SDS011;10871;50.144;8.428;2024-02-21T06:58:06;18.85;;;7.78;;
21420;SDS011;10871;50.144;8.428;2024-02-21T07:00:35;15.27;;;7.70;;
21420;SDS011;10871;50.144;8.428;2024-02-21T07:03:01;14.93;;;8.20;;
21420;SDS011;10871;50.144;8.428;2024-02-21T07:05:29;17.15;;;8.85;;
21420;SDS011;10871;50.144;8.428;2024-02-21T07:07:55;17.90;;;7.70;;
21420;SDS011;10871;50.144;8.428;2024-02-21T07:10:22;15.60;;;7.65;;
21420;SDS011;10871;50.144;8.428;2024-02-21T07:12:49;18.77;;;8.60;;
21420;SDS011;10871;50.144;8.428;2024-02-21T07:15:15;18.05;;;7.90;;
21420;SDS011;10871;50.144;8.428;2024-02-21T07:17:42;16.40;;;8.05;;
21420;SDS011;10871;50.144;8.428;2024-02-21T07:20:08;15.00;;;7.63;;
21420;SDS011;10871;50.144;8.428;2024-02-21T07:22:35;18.25;;;8.35;;
21420;SDS011;10871;50.144;8.428;2024-02-21T07:25:02;20.05;;;8.73;;
21420;SDS011;10871;50.144;8.428;2024-02-21T07:27:32;18.10;;;8.55;;
21420;SDS011;10871;50.144;8.428;2024-02-21T07:29:59;17.05;;;7.93;;
21420;SDS011;10871;50.144;8.428;2024-02-21T07:32:26;17.25;;;8.63;;
21420;SDS011;10871;50.144;8.428;2024-02-21T07:34:53;20.50;;;8.55;;
21420;SDS011;10871;50.144;8.428;2024-02-21T07:37:20;19.67;;;8.57;;
21420;SDS011;10871;50.144;8.428;2024-02-21T07:39:46;15.95;;;9.38;;
21420;SDS011;10871;50.144;8.428;2024-02-21T07:42:12;22.30;;;9.30;;
21420;SDS011;10871;50.144;8.428;2024-02-21T07:44:39;21.80;;;9.45;;
21420;SDS011;10871;50.144;8.428;2024-02-21T07:47:05;23.20;;;9.05;;
21420;SDS011;10871;50.144;8.428;2024-02-21T07:49:40;18.75;;;9.57;;
21420;SDS011;10871;50.144;8.428;2024-02-21T07:52:06;22.08;;;9.23;;
21420;SDS011;10871;50.144;8.428;2024-02-21T07:54:34;13.80;;;9.27;;
21420;SDS011;10871;50.144;8.428;2024-02-21T07:57:00;20.67;;;10.02;;
21420;SDS011;10871;50.144;8.428;2024-02-21T07:59:27;16.95;;;9.32;;
21420;SDS011;10871;50.144;8.428;2024-02-21T08:01:57;19.50;;;10.57;;
21420;SDS011;10871;50.144;8.428;2024-02-21T08:04:24;21.08;;;9.63;;
21420;SDS011;10871;50.144;8.428;2024-02-21T08:06:54;19.65;;;10.63;;
21420;SDS011;10871;50.144;8.428;2024-02-21T08:09:25;19.48;;;10.55;;
21420;SDS011;10871;50.144;8.428;2024-02-21T08:11:52;18.05;;;10.90;;
21420;SDS011;10871;50.144;8.428;2024-02-21T08:14:18;18.83;;;10.35;;
21420;SDS011;10871;50.144;8.428;2024-02-21T08:16:46;19.45;;;9.70;;
21420;SDS011;10871;50.144;8.428;2024-02-21T08:19:13;17.27;;;10.10;;
21420;SDS011;10871;50.144;8.428;2024-02-21T08:21:40;23.58;;;9.90;;
21420;SDS011;10871;50.144;8.428;2024-02-21T08:24:06;17.67;;;9.77;;
21420;SDS011;10871;50.144;8.428;2024-02-21T08:26:33;17.52;;;8.90;;
21420;SDS011;10871;50.144;8.428;2024-02-21T08:28:59;16.48;;;8.38;;
21420;SDS011;10871;50.144;8.428;2024-02-21T08:31:27;20.17;;;9.18;;
21420;SDS011;10871;50.144;8.428;2024-02-21T08:34:00;16.58;;;8.35;;
21420;SDS011;10871;50.144;8.428;2024-02-21T08:36:30;19.58;;;8.20;;
21420;SDS011;10871;50.144;8.428;2024-02-21T08:38:57;17.20;;;8.88;;
21420;SDS011;10871;50.144;8.428;2024-02-21T08:41:24;16.95;;;8.00;;
21420;SDS011;10871;50.144;8.428;2024-02-21T08:44:10;17.40;;;8.13;;
21420;SDS011;10871;50.144;8.428;2024-02-21T08:46:37;18.45;;;8.23;;
21420;SDS011;10871;50.144;8.428;2024-02-21T08:49:06;15.02;;;7.57;;
21420;SDS011;10871;50.144;8.428;2024-02-21T08:51:33;17.65;;;8.45;;
21420;SDS011;10871;50.144;8.428;2024-02-21T08:54:00;16.40;;;8.50;;
21420;SDS011;10871;50.144;8.428;2024-02-21T08:56:29;21.25;;;8.52;;
21420;SDS011;10871;50.144;8.428;2024-02-21T08:58:56;20.08;;;9.27;;
21420;SDS011;10871;50.144;8.428;2024-02-21T09:01:25;13.10;;;8.30;;
21420;SDS011;10871;50.144;8.428;2024-02-21T09:03:52;17.75;;;8.95;;
21420;SDS011;10871;50.144;8.428;2024-02-21T09:06:20;19.25;;;9.35;;
21420;SDS011;10871;50.144;8.428;2024-02-21T09:08:47;18.60;;;9.75;;
21420;SDS011;10871;50.144;8.428;2024-02-21T09:11:13;22.80;;;10.52;;
21420;SDS011;10871;50.144;8.428;2024-02-21T09:13:40;19.92;;;10.48;;
21420;SDS011;10871;50.144;8.428;2024-02-21T09:16:07;23.20;;;12.48;;
21420;SDS011;10871;50.144;8.428;2024-02-21T09:18:33;23.63;;;10.73;;
21420;SDS011;10871;50.144;8.428;2024-02-21T09:21:00;21.92;;;11.02;;
21420;SDS011;10871;50.144;8.428;2024-02-21T09:23:26;19.50;;;11.00;;
21420;SDS011;10871;50.144;8.428;2024-02-21T09:25:53;24.60;;;11.02;;
21420;SDS011;10871;50.144;8.428;2024-02-21T09:28:22;21.08;;;10.93;;
21420;SDS011;10871;50.144;8.428;2024-02-21T09:30:49;22.88;;;11.82;;
21420;SDS011;10871;50.144;8.428;2024-02-21T09:33:15;19.17;;;10.85;;
21420;SDS011;10871;50.144;8.428;2024-02-21T09:35:57;18.63;;;9.98;;
21420;SDS011;10871;50.144;8.428;2024-02-21T09:38:23;19.85;;;10.90;;
21420;SDS011;10871;50.144;8.428;2024-02-21T09:40:55;15.68;;;9.48;;
21420;SDS011;10871;50.144;8.428;2024-02-21T09:43:25;16.42;;;8.63;;
21420;SDS011;10871;50.144;8.428;2024-02-21T09:45:52;17.75;;;9.40;;
21420;SDS011;10871;50.144;8.428;2024-02-21T09:48:26;14.60;;;8.38;;
21420;SDS011;10871;50.144;8.428;2024-02-21T09:50:59;17.45;;;9.07;;
21420;SDS011;10871;50.144;8.428;2024-02-21T09:53:27;15.95;;;9.35;;
21420;SDS011;10871;50.144;8.428;2024-02-21T09:55:56;18.00;;;10.35;;
21420;SDS011;10871;50.144;8.428;2024-02-21T09:58:23;14.35;;;7.82;;
21420;SDS011;10871;50.144;8.428;2024-02-21T10:00:52;14.85;;;7.07;;
21420;SDS011;10871;50.144;8.428;2024-02-21T10:03:19;13.02;;;6.82;;
21420;SDS011;10871;50.144;8.428;2024-02-21T10:05:48;15.68;;;7.60;;
21420;SDS011;10871;50.144;8.428;2024-02-21T10:08:19;15.70;;;7.13;;
21420;SDS011;10871;50.144;8.428;2024-02-21T10:10:46;15.07;;;6.75;;
21420;SDS011;10871;50.144;8.428;2024-02-21T10:13:29;14.95;;;7.03;;
21420;SDS011;10871;50.144;8.428;2024-02-21T10:16:03;11.27;;;6.97;;
21420;SDS011;10871;50.144;8.428;2024-02-21T10:18:30;11.30;;;8.07;;
21420;SDS011;10871;50.144;8.428;2024-02-21T10:21:06;13.98;;;7.43;;
21420;SDS011;10871;50.144;8.428;2024-02-21T10:23:43;13.48;;;5.97;;
21420;SDS011;10871;50.144;8.428;2024-02-21T10:26:10;14.20;;;6.00;;
21420;SDS011;10871;50.144;8.428;2024-02-21T10:28:37;12.15;;;6.00;;
21420;SDS011;10871;50.144;8.428;2024-02-21T10:31:08;13.77;;;6.30;;
21420;SDS011;10871;50.144;8.428;2024-02-21T10:33:36;14.85;;;6.60;;
21420;SDS011;10871;50.144;8.428;2024-02-21T10:36:07;13.52;;;6.20;;
21420;SDS011;10871;50.144;8.428;2024-02-21T10:38:36;12.35;;;5.90;;
21420;SDS011;10871;50.144;8.428;2024-02-21T10:41:03;13.23;;;6.20;;
21420;SDS011;10871;50.144;8.428;2024-02-21T10:43:31;11.05;;;5.43;;
21420;SDS011;10871;50.144;8.428;2024-02-21T10:46:00;11.70;;;5.38;;
21420;SDS011;10871;50.144;8.428;2024-02-21T10:48:29;10.98;;;5.32;;
21420;SDS011;10871;50.144;8.428;2024-02-21T10:58:52;12.80;;;6.63;;
21420;SDS011;10871;50.144;8.428;2024-02-21T11:01:19;13.13;;;4.57;;
21420;SDS011;10871;50.144;8.428;2024-02-21T11:03:46;14.88;;;4.90;;
21420;SDS011;10871;50.144;8.428;2024-02-21T11:06:15;9.45;;;4.20;;
21420;SDS011;10871;50.144;8.428;2024-02-21T11:08:43;11.25;;;4.50;;
21420;SDS011;10871;50.144;8.428;2024-02-21T11:11:12;10.77;;;3.97;;
21420;SDS011;10871;50.144;8.428;2024-02-21T11:14:03;9.63;;;3.95;;
21420;SDS011;10871;50.144;8.428;2024-02-21T11:16:36;11.55;;;4.15;;
21420;SDS011;10871;50.144;8.428;2024-02-21T11:19:05;8.35;;;4.10;;
21420;SDS011;10871;50.144;8.428;2024-02-21T11:21:35;7.15;;;3.47;;
21420;SDS011;10871;50.144;8.428;2024-02-21T11:24:03;8.55;;;3.67;;
21420;SDS011;10871;50.144;8.428;2024-02-21T11:26:30;9.82;;;4.05;;
21420;SDS011;10871;50.144;8.428;2024-02-21T11:28:57;8.45;;;3.42;;
21420;SDS011;10871;50.144;8.428;2024-02-21T11:31:24;11.80;;;4.30;;
21420;SDS011;10871;50.144;8.428;2024-02-21T11:33:53;10.75;;;3.90;;
21420;SDS011;10871;50.144;8.428;2024-02-21T11:36:26;7.88;;;3.85;;
21420;SDS011;10871;50.144;8.428;2024-02-21T11:38:52;10.77;;;3.75;;
21420;SDS011;10871;50.144;8.428;2024-02-21T11:41:22;11.82;;;3.88;;
21420;SDS011;10871;50.144;8.428;2024-02-21T11:43:49;11.70;;;4.13;;
21420;SDS011;10871;50.144;8.428;2024-02-21T11:46:17;11.95;;;4.13;;
21420;SDS011;10871;50.144;8.428;2024-02-21T11:48:44;10.88;;;5.25;;
21420;SDS011;10871;50.144;8.428;2024-02-21T11:51:35;8.73;;;4.65;;
21420;SDS011;10871;50.144;8.428;2024-02-21T11:54:01;11.30;;;5.32;;
21420;SDS011;10871;50.144;8.428;2024-02-21T11:56:28;9.50;;;3.88;;
21420;SDS011;10871;50.144;8.428;2024-02-21T11:58:54;10.75;;;4.45;;
21420;SDS011;10871;50.144;8.428;2024-02-21T12:01:21;11.30;;;4.82;;
21420;SDS011;10871;50.144;8.428;2024-02-21T12:03:48;10.65;;;5.13;;
21420;SDS011;10871;50.144;8.428;2024-02-21T12:06:16;10.65;;;5.63;;
21420;SDS011;10871;50.144;8.428;2024-02-21T12:08:46;11.18;;;5.28;;
21420;SDS011;10871;50.144;8.428;2024-02-21T12:11:22;13.45;;;5.43;;
21420;SDS011;10871;50.144;8.428;2024-02-21T12:13:58;13.55;;;4.53;;
21420;SDS011;10871;50.144;8.428;2024-02-21T12:16:27;13.18;;;4.80;;
21420;SDS011;10871;50.144;8.428;2024-02-21T12:18:54;8.38;;;4.38;;
21420;SDS011;10871;50.144;8.428;2024-02-21T12:21:29;9.95;;;3.85;;
21420;SDS011;10871;50.144;8.428;2024-02-21T12:23:56;10.35;;;4.40;;
21420;SDS011;10871;50.144;8.428;2024-02-21T12:26:23;8.50;;;3.80;;
21420;SDS011;10871;50.144;8.428;2024-02-21T12:28:50;11.10;;;4.35;;
21420;SDS011;10871;50.144;8.428;2024-02-21T12:31:17;8.63;;;4.72;;
21420;SDS011;10871;50.144;8.428;2024-02-21T12:33:43;10.63;;;3.95;;
21420;SDS011;10871;50.144;8.428;2024-02-21T12:36:10;12.50;;;4.20;;
21420;SDS011;10871;50.144;8.428;2024-02-21T12:38:37;10.57;;;4.05;;
21420;SDS011;10871;50.144;8.428;2024-02-21T12:41:03;9.55;;;4.15;;
21420;SDS011;10871;50.144;8.428;2024-02-21T12:43:30;7.10;;;3.72;;
21420;SDS011;10871;50.144;8.428;2024-02-21T12:45:56;7.75;;;3.28;;
21420;SDS011;10871;50.144;8.428;2024-02-21T12:48:23;9.20;;;3.10;;
21420;SDS011;10871;50.144;8.428;2024-02-21T12:50:50;10.90;;;3.13;;
21420;SDS011;10871;50.144;8.428;2024-02-21T12:53:17;8.82;;;3.30;;
21420;SDS011;10871;50.144;8.428;2024-02-21T12:55:54;11.10;;;3.58;;
21420;SDS011;10871;50.144;8.428;2024-02-21T12:58:20;13.35;;;3.55;;
21420;SDS011;10871;50.144;8.428;2024-02-21T13:00:47;10.85;;;3.50;;
21420;SDS011;10871;50.144;8.428;2024-02-21T13:03:14;10.13;;;3.90;;
21420;SDS011;10871;50.144;8.428;2024-02-21T13:05:40;10.88;;;4.10;;
21420;SDS011;10871;50.144;8.428;2024-02-21T13:08:08;15.85;;;4.15;;
21420;SDS011;10871;50.144;8.428;2024-02-21T13:10:36;12.65;;;3.90;;
21420;SDS011;10871;50.144;8.428;2024-02-21T13:13:03;11.70;;;4.35;;
21420;SDS011;10871;50.144;8.428;2024-02-21T13:15:29;12.93;;;5.32;;
21420;SDS011;10871;50.144;8.428;2024-02-21T13:17:56;11.82;;;5.13;;
21420;SDS011;10871;50.144;8.428;2024-02-21T13:20:24;9.20;;;3.78;;
21420;SDS011;10871;50.144;8.428;2024-02-21T13:22:51;11.30;;;4.20;;
21420;SDS011;10871;50.144;8.428;2024-02-21T13:25:18;11.85;;;3.72;;
21420;SDS011;10871;50.144;8.428;2024-02-21T13:27:47;10.52;;;5.60;;
21420;SDS011;10871;50.144;8.428;2024-02-21T13:30:15;17.38;;;4.68;;
21420;SDS011;10871;50.144;8.428;2024-02-21T13:32:44;14.65;;;4.25;;
21420;SDS011;10871;50.144;8.428;2024-02-21T13:35:14;12.30;;;4.03;;
21420;SDS011;10871;50.144;8.428;2024-02-21T13:37:41;11.43;;;4.13;;
21420;SDS011;10871;50.144;8.428;2024-02-21T13:40:08;9.38;;;4.47;;
21420;SDS011;10871;50.144;8.428;2024-02-21T13:42:37;13.98;;;4.40;;
21420;SDS011;10871;50.144;8.428;2024-02-21T13:45:04;11.05;;;4.28;;
21420;SDS011;10871;50.144;8.428;2024-02-21T13:47:34;9.98;;;4.05;;
21420;SDS011;10871;50.144;8.428;2024-02-21T13:50:03;14.02;;;4.78;;
21420;SDS011;10871;50.144;8.428;2024-02-21T13:52:37;10.50;;;3.97;;
21420;SDS011;10871;50.144;8.428;2024-02-21T13:55:04;11.55;;;3.78;;
21420;SDS011;10871;50.144;8.428;2024-02-21T13:57:30;11.32;;;4.05;;
21420;SDS011;10871;50.144;8.428;2024-02-21T13:59:57;10.82;;;4.00;;
21420;SDS011;10871;50.144;8.428;2024-02-21T14:02:24;10.35;;;3.63;;
21420;SDS011;10871;50.144;8.428;2024-02-21T14:04:51;9.45;;;3.30;;
21420;SDS011;10871;50.144;8.428;2024-02-21T14:07:18;9.02;;;3.50;;
21420;SDS011;10871;50.144;8.428;2024-02-21T14:09:44;11.50;;;3.67;;
21420;SDS011;10871;50.144;8.428;2024-02-21T14:12:11;8.60;;;3.63;;
21420;SDS011;10871;50.144;8.428;2024-02-21T14:14:38;8.77;;;3.13;;
21420;SDS011;10871;50.144;8.428;2024-02-21T14:17:05;9.13;;;3.42;;
21420;SDS011;10871;50.144;8.428;2024-02-21T14:19:32;10.20;;;3.88;;
21420;SDS011;10871;50.144;8.428;2024-02-21T14:21:59;9.18;;;3.25;;
21420;SDS011;10871;50.144;8.428;2024-02-21T14:24:26;10.77;;;3.40;;
21420;SDS011;10871;50.144;8.428;2024-02-21T14:26:54;8.63;;;2.65;;
21420;SDS011;10871;50.144;8.428;2024-02-21T14:29:22;10.00;;;3.10;;
21420;SDS011;10871;50.144;8.428;2024-02-21T14:31:48;7.32;;;2.70;;
21420;SDS011;10871;50.144;8.428;2024-02-21T14:34:16;9.13;;;2.78;;
21420;SDS011;10871;50.144;8.428;2024-02-21T14:36:43;7.75;;;2.85;;
21420;SDS011;10871;50.144;8.428;2024-02-21T14:39:09;11.38;;;2.88;;
21420;SDS011;10871;50.144;8.428;2024-02-21T14:41:36;11.48;;;3.00;;
21420;SDS011;10871;50.144;8.428;2024-02-21T14:44:03;11.30;;;3.60;;
21420;SDS011;10871;50.144;8.428;2024-02-21T14:46:30;12.02;;;3.60;;
21420;SDS011;10871;50.144;8.428;2024-02-21T14:48:57;10.40;;;3.67;;